Time,TemperatureF,DewpointF,PressureIn,WindDirection,WindDirectionDegrees,WindSpeedMPH,WindSpeedGustMPH,Humidity,HourlyPrecipIn,Conditions,Clouds,dailyrainin,SoftwareType,DateUTC
2013-01-10 00:04:00,31.5,25.0,30.52,NW,304,0.0,1.0,77,0.00,,,0.00,weatherlink.com 1.10,2013-01-10 06:04:00,
2013-01-10 00:19:00,30.8,25.0,30.51,WNW,303,0.0,0.0,79,0.00,,,0.00,weatherlink.com 1.10,2013-01-10 06:19:00,
2013-01-10 00:34:00,30.2,25.0,30.50,WNW,303,0.0,0.0,81,0.00,,,0.00,weatherlink.com 1.10,2013-01-10 06:34:00,
2013-01-10 00:49:00,30.0,25.0,30.50,NW,304,1.0,2.0,82,0.00,,,0.00,weatherlink.com 1.10,2013-01-10 06:49:00,
2013-01-10 01:04:00,30.3,25.0,30.48,North,360,4.0,5.0,82,0.00,,,0.00,weatherlink.com 1.10,2013-01-10 07:04:00,
2013-01-10 01:19:00,31.3,26.0,30.48,NNE,28,5.0,6.0,79,0.00,,,0.00,weatherlink.com 1.10,2013-01-10 07:19:00,
2013-01-10 01:34:00,31.1,25.0,30.48,NNE,29,2.0,4.0,79,0.00,,,0.00,weatherlink.com 1.10,2013-01-10 07:34:00,
2013-01-10 01:49:00,31.9,25.0,30.47,NNE,30,5.0,5.0,77,0.00,,,0.00,weatherlink.com 1.10,2013-01-10 07:49:00,
2013-01-10 02:04:00,33.2,25.0,30.47,NE,47,3.0,6.0,73,0.00,,,0.00,weatherlink.com 1.10,2013-01-10 08:04:00,
2013-01-10 02:19:00,33.3,25.0,30.49,ENE,59,2.0,5.0,71,0.00,,,0.00,weatherlink.com 1.10,2013-01-10 08:19:00,
2013-01-10 02:34:00,30.1,24.0,30.50,SE,146,2.0,6.0,79,0.00,,,0.00,weatherlink.com 1.10,2013-01-10 08:34:00,
2013-01-10 02:49:00,30.1,25.0,30.49,SE,146,2.0,3.0,80,0.00,,,0.00,weatherlink.com 1.10,2013-01-10 08:49:00,
2013-01-10 03:04:00,30.5,25.0,30.49,SE,146,1.0,3.0,79,0.00,,,0.00,weatherlink.com 1.10,2013-01-10 09:04:00,
2013-01-10 03:19:00,30.4,25.0,30.49,SE,146,0.0,3.0,79,0.00,,,0.00,weatherlink.com 1.10,2013-01-10 09:19:00,
2013-01-10 03:34:00,30.3,25.0,30.48,SE,146,0.0,4.0,79,0.00,,,0.00,weatherlink.com 1.10,2013-01-10 09:34:00,
2013-01-10 03:49:00,30.5,24.0,30.48,SE,146,2.0,5.0,78,0.00,,,0.00,weatherlink.com 1.10,2013-01-10 09:49:00,
2013-01-10 04:04:00,30.9,25.0,30.48,SE,144,2.0,5.0,77,0.00,,,0.00,weatherlink.com 1.10,2013-01-10 10:04:00,
2013-01-10 04:19:00,31.1,25.0,30.48,SE,142,2.0,5.0,77,0.00,,,0.00,weatherlink.com 1.10,2013-01-10 10:19:00,
2013-01-10 04:49:00,30.1,25.0,30.46,SE,142,2.0,4.0,81,0.00,,,0.00,weatherlink.com 1.10,2013-01-10 10:49:00,
2013-01-10 05:04:00,29.5,25.0,30.46,SE,142,0.0,4.0,82,0.00,,,0.00,weatherlink.com 1.10,2013-01-10 11:04:00,
2013-01-10 05:19:00,29.4,25.0,30.46,SE,140,3.0,5.0,83,0.00,,,0.00,weatherlink.com 1.10,2013-01-10 11:19:00,
2013-01-10 05:34:00,29.6,25.0,30.45,SE,126,3.0,6.0,83,0.00,,,0.00,weatherlink.com 1.10,2013-01-10 11:34:00,
2013-01-10 05:49:00,29.3,25.0,30.45,SE,126,1.0,5.0,83,0.00,,,0.00,weatherlink.com 1.10,2013-01-10 11:49:00,
2013-01-10 06:04:00,29.3,25.0,30.45,SE,126,3.0,5.0,84,0.00,,,0.00,weatherlink.com 1.10,2013-01-10 12:04:00,
2013-01-10 06:19:00,29.5,25.0,30.45,ESE,117,2.0,5.0,84,0.00,,,0.00,weatherlink.com 1.10,2013-01-10 12:19:00,
2013-01-10 06:34:00,29.8,26.0,30.45,ESE,115,3.0,7.0,84,0.00,,,0.00,weatherlink.com 1.10,2013-01-10 12:34:00,
2013-01-10 06:49:00,29.7,25.0,30.44,ESE,113,3.0,5.0,84,0.00,,,0.00,weatherlink.com 1.10,2013-01-10 12:49:00,
2013-01-10 07:04:00,30.0,25.0,30.44,ESE,107,5.0,7.0,83,0.00,,,0.00,weatherlink.com 1.10,2013-01-10 13:04:00,
2013-01-10 07:19:00,30.1,26.0,30.43,ESE,107,3.0,7.0,83,0.00,,,0.00,weatherlink.com 1.10,2013-01-10 13:19:00,
2013-01-10 07:34:00,30.7,26.0,30.43,ESE,103,4.0,8.0,82,0.00,,,0.00,weatherlink.com 1.10,2013-01-10 13:34:00,
2013-01-10 07:49:00,30.9,26.0,30.42,ESE,104,3.0,7.0,82,0.00,,,0.00,weatherlink.com 1.10,2013-01-10 13:49:00,
2013-01-10 08:04:00,31.4,27.0,30.41,East,100,8.0,9.0,82,0.00,,,0.00,weatherlink.com 1.10,2013-01-10 14:04:00,
2013-01-10 08:19:00,32.2,27.0,30.41,ESE,102,5.0,11.0,80,0.00,,,0.00,weatherlink.com 1.10,2013-01-10 14:19:00,
2013-01-10 08:34:00,32.8,27.0,30.41,East,97,7.0,10.0,80,0.00,,,0.00,weatherlink.com 1.10,2013-01-10 14:34:00,
2013-01-10 08:49:00,33.4,28.0,30.41,East,95,5.0,9.0,81,0.00,,,0.00,weatherlink.com 1.10,2013-01-10 14:49:00,
2013-01-10 09:04:00,33.9,28.0,30.40,East,93,6.0,9.0,80,0.00,,,0.00,weatherlink.com 1.10,2013-01-10 15:04:00,
2013-01-10 09:19:00,34.4,29.0,30.39,East,92,7.0,11.0,80,0.00,,,0.00,weatherlink.com 1.10,2013-01-10 15:19:00,
2013-01-10 09:34:00,35.0,28.0,30.39,ESE,107,5.0,15.0,77,0.00,,,0.00,weatherlink.com 1.10,2013-01-10 15:34:00,
2013-01-10 09:49:00,35.1,29.0,30.38,East,83,6.0,11.0,79,0.00,,,0.00,weatherlink.com 1.10,2013-01-10 15:49:00,
2013-01-10 10:05:00,35.3,29.0,30.37,East,96,7.0,13.0,79,0.00,,,0.00,weatherlink.com 1.10,2013-01-10 16:05:00,
2013-01-10 10:20:00,35.7,29.0,30.37,East,99,9.0,15.0,78,0.00,,,0.00,weatherlink.com 1.10,2013-01-10 16:20:00,
2013-01-10 10:35:00,36.2,30.0,30.36,SE,129,7.0,15.0,78,0.00,,,0.00,weatherlink.com 1.10,2013-01-10 16:35:00,
2013-01-10 10:50:00,37.3,30.0,30.34,SE,140,10.0,14.0,76,0.00,,,0.00,weatherlink.com 1.10,2013-01-10 16:50:00,
2013-01-10 11:05:00,37.9,30.0,30.32,ESE,117,9.0,14.0,74,0.00,,,0.00,weatherlink.com 1.10,2013-01-10 17:05:00,
2013-01-10 11:20:00,38.1,30.0,30.30,East,99,7.0,13.0,73,0.00,,,0.00,weatherlink.com 1.10,2013-01-10 17:20:00,
2013-01-10 11:35:00,38.6,30.0,30.29,East,87,9.0,15.0,71,0.00,,,0.00,weatherlink.com 1.10,2013-01-10 17:35:00,
2013-01-10 12:05:00,38.6,31.0,30.26,ESE,113,10.0,13.0,75,0.00,,,0.00,weatherlink.com 1.10,2013-01-10 18:05:00,
2013-01-10 12:20:00,38.3,32.0,30.24,ESE,117,11.0,17.0,77,0.00,,,0.00,weatherlink.com 1.10,2013-01-10 18:20:00,
2013-01-10 12:35:00,38.9,32.0,30.24,East,95,11.0,13.0,75,0.00,,,0.00,weatherlink.com 1.10,2013-01-10 18:35:00,
2013-01-10 12:50:00,38.4,32.0,30.23,ESE,106,8.0,13.0,79,0.00,,,0.00,weatherlink.com 1.10,2013-01-10 18:50:00,
2013-01-10 13:05:00,37.9,32.0,30.22,East,93,7.0,13.0,80,0.00,,,0.00,weatherlink.com 1.10,2013-01-10 19:05:00,
2013-01-10 13:20:00,37.8,32.0,30.20,ESE,105,5.0,15.0,80,0.00,,,0.00,weatherlink.com 1.10,2013-01-10 19:20:00,
2013-01-10 13:35:00,38.0,32.0,30.20,East,98,6.0,18.0,80,0.00,,,0.00,weatherlink.com 1.10,2013-01-10 19:35:00,
2013-01-10 13:50:00,38.4,33.0,30.19,ENE,74,11.0,16.0,81,0.00,,,0.00,weatherlink.com 1.10,2013-01-10 19:50:00,
2013-01-10 14:05:00,38.4,33.0,30.18,SE,126,8.0,19.0,82,0.00,,,0.00,weatherlink.com 1.10,2013-01-10 20:05:00,
2013-01-10 14:20:00,37.4,34.0,30.18,ESE,113,5.0,16.0,87,0.00,,,0.00,weatherlink.com 1.10,2013-01-10 20:20:00,
2013-01-10 14:35:00,37.0,34.0,30.16,ESE,105,10.0,19.0,90,0.01,,,0.01,weatherlink.com 1.10,2013-01-10 20:35:00,
2013-01-10 14:50:00,36.8,35.0,30.16,SE,140,11.0,19.0,92,0.01,,,0.01,weatherlink.com 1.10,2013-01-10 20:50:00,
2013-01-10 15:05:00,36.7,35.0,30.15,East,101,9.0,17.0,93,0.01,,,0.01,weatherlink.com 1.10,2013-01-10 21:05:00,
2013-01-10 15:21:00,36.9,35.0,30.14,SE,126,11.0,19.0,94,0.02,,,0.02,weatherlink.com 1.10,2013-01-10 21:21:00,
2013-01-10 15:36:00,37.1,36.0,30.14,SE,130,11.0,18.0,94,0.01,,,0.02,weatherlink.com 1.10,2013-01-10 21:36:00,
2013-01-10 15:51:00,37.4,36.0,30.13,East,88,14.0,19.0,94,0.01,,,0.02,weatherlink.com 1.10,2013-01-10 21:51:00,
2013-01-10 16:06:00,37.7,36.0,30.13,ESE,123,15.0,19.0,94,0.01,,,0.00,weatherlink.com 1.10,2013-01-10 22:06:00,
2013-01-10 16:21:00,37.9,37.0,30.11,SE,131,14.0,21.0,95,0.00,,,0.00,weatherlink.com 1.10,2013-01-10 22:21:00,
2013-01-10 16:36:00,37.8,37.0,30.11,ESE,123,11.0,18.0,95,0.00,,,0.00,weatherlink.com 1.10,2013-01-10 22:36:00,
2013-01-10 16:51:00,38.0,37.0,30.11,ESE,111,11.0,16.0,95,0.00,,,0.00,weatherlink.com 1.10,2013-01-10 22:51:00,
2013-01-10 17:06:00,38.2,37.0,30.10,SE,126,9.0,16.0,96,0.00,,,0.00,weatherlink.com 1.10,2013-01-10 23:06:00,
2013-01-10 17:21:00,38.7,38.0,30.08,SSE,149,12.0,19.0,96,0.00,,,0.00,weatherlink.com 1.10,2013-01-10 23:21:00,
2013-01-10 17:36:00,39.0,38.0,30.07,ESE,119,9.0,16.0,96,0.00,,,0.00,weatherlink.com 1.10,2013-01-10 23:36:00,
2013-01-10 17:51:00,39.4,38.0,30.07,SE,138,7.0,17.0,96,0.00,,,0.00,weatherlink.com 1.10,2013-01-10 23:51:00,
2013-01-10 18:06:00,39.9,39.0,30.05,SE,134,8.0,15.0,96,0.00,,,0.00,weatherlink.com 1.10,2013-01-11 00:06:00,
2013-01-10 18:21:00,40.7,40.0,30.04,SE,128,10.0,17.0,97,0.00,,,0.00,weatherlink.com 1.10,2013-01-11 00:21:00,
2013-01-10 18:36:00,41.0,40.0,30.04,ESE,123,13.0,17.0,97,0.00,,,0.00,weatherlink.com 1.10,2013-01-11 00:36:00,
2013-01-10 18:51:00,41.2,40.0,30.03,SE,132,6.0,15.0,97,0.00,,,0.00,weatherlink.com 1.10,2013-01-11 00:51:00,
2013-01-10 19:06:00,41.4,41.0,30.01,SE,134,13.0,15.0,97,0.00,,,0.00,weatherlink.com 1.10,2013-01-11 01:06:00,
2013-01-10 19:21:00,41.6,41.0,30.01,SE,138,13.0,17.0,97,0.01,,,0.01,weatherlink.com 1.10,2013-01-11 01:21:00,
2013-01-10 19:36:00,41.9,41.0,29.99,ESE,115,12.0,17.0,97,0.04,,,0.04,weatherlink.com 1.10,2013-01-11 01:36:00,
2013-01-10 19:51:00,42.2,41.0,29.99,SE,138,18.0,20.0,97,0.08,,,0.08,weatherlink.com 1.10,2013-01-11 01:51:00,
2013-01-10 20:06:00,42.4,42.0,29.98,SE,139,12.0,20.0,97,0.20,,,0.20,weatherlink.com 1.10,2013-01-11 02:06:00,
2013-01-10 20:21:00,42.7,42.0,29.98,SE,140,9.0,22.0,97,0.20,,,0.21,weatherlink.com 1.10,2013-01-11 02:21:00,
2013-01-10 20:36:00,42.9,42.0,29.98,SSE,151,11.0,18.0,97,0.17,,,0.21,weatherlink.com 1.10,2013-01-11 02:36:00,
2013-01-10 20:51:00,43.3,43.0,29.97,SE,142,18.0,20.0,97,0.13,,,0.21,weatherlink.com 1.10,2013-01-11 02:51:00,
2013-01-10 21:06:00,43.8,43.0,29.96,SSE,147,12.0,17.0,97,0.01,,,0.21,weatherlink.com 1.10,2013-01-11 03:06:00,
2013-01-10 21:21:00,44.3,44.0,29.95,SE,144,10.0,16.0,97,0.00,,,0.21,weatherlink.com 1.10,2013-01-11 03:21:00,
2013-01-10 21:37:00,45.0,44.0,29.96,South,171,11.0,16.0,97,0.00,,,0.21,weatherlink.com 1.10,2013-01-11 03:37:00,
2013-01-10 21:52:00,46.0,46.0,29.95,SSE,167,12.0,18.0,98,0.03,,,0.24,weatherlink.com 1.10,2013-01-11 03:52:00,
2013-01-10 22:07:00,47.8,47.0,29.93,SSE,157,12.0,18.0,98,0.09,,,0.30,weatherlink.com 1.10,2013-01-11 04:07:00,
2013-01-10 22:22:00,48.1,48.0,29.93,SE,130,14.0,21.0,98,0.12,,,0.33,weatherlink.com 1.10,2013-01-11 04:22:00,
2013-01-10 22:37:00,48.1,48.0,29.91,SE,136,11.0,19.0,98,0.14,,,0.35,weatherlink.com 1.10,2013-01-11 04:37:00,
2013-01-10 22:52:00,47.3,47.0,29.90,SE,142,12.0,18.0,97,0.11,,,0.36,weatherlink.com 1.10,2013-01-11 04:52:00,
2013-01-10 23:07:00,47.1,46.0,29.88,SE,129,10.0,16.0,97,0.07,,,0.37,weatherlink.com 1.10,2013-01-11 05:07:00,
2013-01-10 23:22:00,47.0,47.0,29.87,SE,128,13.0,16.0,98,0.05,,,0.38,weatherlink.com 1.10,2013-01-11 05:22:00,
2013-01-10 23:37:00,47.3,47.0,29.86,SE,134,15.0,19.0,98,0.04,,,0.39,weatherlink.com 1.10,2013-01-11 05:37:00,
2013-01-10 23:52:00,47.4,47.0,29.85,SE,138,14.0,20.0,98,0.03,,,0.39,weatherlink.com 1.10,2013-01-11 05:52:00,